Aeroporto :
LOGIN :

Iscrizione | Disclaimer

   EN    FR    IT 

 










Sommario :    VFR   VFR Marginale   IFR   IFR Intensivo   IFR Molto Intensivo
Visibilità : 
Base nubi : 
>= 8 km
>= 3000ft
5 / 8 km
1000 / 3000 ft
1500m / 5 km
500 / 1000 ft
800 / 1500m
200 / 500 ft
< 800m
< 200 ft
Simboli :   Temporali  Nebbia  Neve Forte  Precipitazioni Forti  Vento > 20 kt
SIGMETs :   Varie  Temporali  Ghiacco  Turbolenza  Onda orograficha  Ceneri Vulcaniche







- Altitudine del aeroporto : 1475 ft


LSZC - Buochs Stans

ULTIMO METAR :
  • 260950Z 10005KT 040V130 9999 BKN034 06/M01 Q1029

METARs OBSOLETI :
  • 260920Z VRB06KT 9999 BKN035 05/M01 Q1029
  • 260850Z 07004KT 030V110 9999 BKN049 06/M00 Q1029
  • 260820Z VRB01KT 9999 SCT022 BKN050 04/01 Q1028
  • 260750Z VRB01KT 9999 SCT020 BKN042 04/00 Q1028
  • 260720Z AUTO VRB07KT 9999 OVC050 04/01 Q1028
  • 260650Z 33011KT 6000 -RA BKN030 03/M00 Q1028

TAF TAF LSZC
Valido dal 26 a 09 ore il 26 a 18 ore UTC


260825Z 2609/2618 04006KT 9999 SCT020 BKN040
BECMG 2615/2618 CAVOK
Nessun NOTAM noto per questo aeroporto.
1 SIGMET conosciuto per la FIR Switzerland (LSAS) :
 
Forte onda orograficha
LSAS SIGMET 1 VALID 260930/261125 LSZH
LSAS SWITZERLAND FIR/UIR SEV MTW FCST WI N4640 E01042 - N4535 E00949 - N4533 E00720 - N4554 E00659 - N4625 E00738 - N4639 E00845 - N4640 E01042 FL120/400 STNR INTSF=



MetMap, La meteo Aeronautica in un colpo d'occhio ! - Copyright ORBIFLY Dicembre 2007 - Disclaimer

ORBIFLY MET'MAP TEAM :

Programmazione e sviluppo : Alexandra Zaïnal
Concezione e sviluppo : Baudouin d'Aumeries
Co-Programmazione e sviluppo : Marc-Olivier Méhu
Supporto tecnico e logistico : Manuel Goepfert
Aiuto per la traduzione : Arnaldo La Scala

Contatto : metmap@orbifly.com




FONTI E CREDITI :

   NOAA